Airfield :
LOGIN :

Register | Disclaimer

   EN    FR    IT 

 










Legend :    VFR   Marginal VFR   IFR   Intensive IFR   Very Intensive IFR
Visi :
Ceiling :
>= 8 km
>= 3000ft
5 to 8 km
1000 to 3000 ft
1500m to 5 km
500 to 1000 ft
800 to 1500m
200 to 500 ft
< 800m
< 200 ft
Symbols :   Thunderstorms  Fog  Heavy snow  Heavy precipitations  Wind > 20 kt
SIGMETs :     Misc.  Thunderstorms  Icing  Turbulence  Mountain Waves  Volcanic Ashes







- Airport Elevation : 157 ft
- IATA code : LIL
- Download approach charts


LFQQ - Lille Lesquin

CURRENT METAR :
  • 202000Z AUTO 35006KT CAVOK 18/11 Q1022 NOSIG

EXPIRED METARs :
  • 201930Z AUTO 34008KT CAVOK 19/11 Q1022 NOSIG
  • 201900Z AUTO 34010KT CAVOK 20/11 Q1022 BECMG 27007KT
  • 201830Z AUTO 35010KT CAVOK 22/10 Q1022 BECMG 27007KT
  • 201800Z AUTO 34010KT CAVOK 23/08 Q1022 BECMG 27007KT
  • 201730Z AUTO 35011KT CAVOK 24/11 Q1022 BECMG 27007KT

TAF TAF LFQQ
Valid from the 20 at 18:00 until the 22 at 00:00 UTC


201700Z 2018/2124 27007KT CAVOK
BECMG 2114/2116 06010KT
ATIS : +33 3 20 16 19 54
No reported NOTAMs for that airfield.



MET'MAP, your aeronautical weather chart ! - Copyright ORBIFLY December 2007 - Disclaimer

ORBIFLY MET'MAP TEAM :

Programming & Development : Alexandra Zaïnal
Concept & Development : Baudouin d'Aumeries
Co-Development & Prog : Marc-Olivier Méhu
Technical & hardware support : Manuel Goepfert

Contact : metmap@orbifly.com




SOURCES & CREDITS :

   NOAA